^^
Saratoga-Weather Station Historical Data
Daily Summary for May 14, 2021 Units:  English    Metric   Both
Daily Weekly Monthly Yearly Custom
  High: Low: Average:
Temperature: 49.5 °F 44.1 °F 47.1 °F
Dew Point: 45.5 °F 42.1 °F 44.2 °F
Humidity: 93% 85% 90%
Wind Speed: 2.9mph 0mph 0.3mph
Wind Gust: 7mph - -
Wind- - WSW
Pressure: 29.8 in 29.7 in -
Precipitation: 0 in    
Historical Graphs
 
 
Tabular Data for May 14, 2021
Time Temperature Dew Point Pressure Wind Wind Speed Wind Gust Humidity Rainfall Rate (Hourly) solar
00:01 49.5 °F 45.1 °F 29.8 in Calm   1 mph 85% 0 in 0 W/m2
00:06 49.3 °F 45.3 °F 29.8 in Calm   1 mph 86% 0 in 0 W/m2
00:11 49.1 °F 45.1 °F 29.8 in Calm   1 mph 86% 0 in 0 W/m2
00:16 48.9 °F 45 °F 29.8 in Calm   3 mph 86% 0 in 0 W/m2
00:21 48.7 °F 44.8 °F 29.8 in ESE 0.9 mph 1 mph 86% 0 in 0 W/m2
00:26 48.6 °F 44.8 °F 29.8 in Calm   2 mph 87% 0 in 0 W/m2
00:31 48.6 °F 45.1 °F 29.8 in SW 0.9 mph 2 mph 88% 0 in 0 W/m2
00:36 48.6 °F 45.1 °F 29.8 in Calm   4 mph 88% 0 in 0 W/m2
00:41 48.7 °F 45.3 °F 29.8 in Calm   3 mph 88% 0 in 0 W/m2
00:46 48.7 °F 45.3 °F 29.8 in SSE 0.9 mph 3 mph 88% 0 in 0 W/m2
00:51 48.9 °F 45.5 °F 29.8 in WNW 0.9 mph 6 mph 88% 0 in 0 W/m2
00:56 48.9 °F 45.5 °F 29.8 in Calm   3 mph 88% 0 in 0 W/m2
01:01 48.9 °F 45.5 °F 29.8 in West 2.9 mph 7 mph 88% 0 in 0 W/m2
01:06 48.9 °F 45.5 °F 29.8 in West 2 mph 3 mph 88% 0 in 0 W/m2
01:11 48.7 °F 45.3 °F 29.8 in WSW 0.9 mph 7 mph 88% 0 in 0 W/m2
01:16 48.7 °F 45.3 °F 29.8 in West 2 mph 2 mph 88% 0 in 0 W/m2
01:21 48.6 °F 45.1 °F 29.7 in WNW 0.9 mph 4 mph 88% 0 in 0 W/m2
01:26 48.6 °F 45.5 °F 29.7 in WNW 2 mph 4 mph 89% 0 in 0 W/m2
01:31 48.6 °F 45.5 °F 29.7 in Calm   2 mph 89% 0 in 0 W/m2
01:36 48.6 °F 45.1 °F 29.7 in Calm   1 mph 88% 0 in 0 W/m2
01:41 48.4 °F 45 °F 29.7 in West 0.9 mph 4 mph 88% 0 in 0 W/m2
01:46 48.2 °F 44.8 °F 29.7 in WNW 0.9 mph 3 mph 88% 0 in 0 W/m2
01:51 48 °F 45 °F 29.7 in Calm   4 mph 89% 0 in 0 W/m2
01:56 48 °F 45 °F 29.7 in Calm   2 mph 89% 0 in 0 W/m2
02:01 48 °F 45 °F 29.8 in West 0.9 mph 2 mph 89% 0 in 0 W/m2
02:06 48 °F 45 °F 29.8 in Calm   1 mph 89% 0 in 0 W/m2
02:11 47.8 °F 44.8 °F 29.8 in Calm   3 mph 89% 0 in 0 W/m2
02:16 47.8 °F 44.8 °F 29.8 in WSW 0.9 mph 2 mph 89% 0 in 0 W/m2
02:21 47.8 °F 44.8 °F 29.8 in WSW 2 mph 3 mph 89% 0 in 0 W/m2
02:26 47.8 °F 44.8 °F 29.8 in West 2 mph 2 mph 89% 0 in 0 W/m2
02:31 47.8 °F 44.8 °F 29.8 in Calm   3 mph 89% 0 in 0 W/m2
02:36 47.8 °F 44.8 °F 29.8 in WSW 0.9 mph 3 mph 89% 0 in 0 W/m2
02:41 47.8 °F 44.8 °F 29.8 in WSW 0.9 mph 4 mph 89% 0 in 0 W/m2
02:46 47.8 °F 44.8 °F 29.7 in NW 0.9 mph 2 mph 89% 0 in 0 W/m2
02:51 47.8 °F 44.8 °F 29.8 in NW 0.9 mph 4 mph 89% 0 in 0 W/m2
02:56 47.8 °F 44.8 °F 29.8 in Calm     89% 0 in 0 W/m2
03:01 47.7 °F 44.6 °F 29.8 in Calm     89% 0 in 0 W/m2
03:06 47.5 °F 44.4 °F 29.7 in Calm     89% 0 in 0 W/m2
03:11 47.5 °F 44.4 °F 29.7 in Calm     89% 0 in 0 W/m2
03:16 47.1 °F 44.1 °F 29.7 in Calm     89% 0 in 0 W/m2
03:21 46.9 °F 43.9 °F 29.7 in Calm     89% 0 in 0 W/m2
03:26 46.9 °F 44.2 °F 29.7 in Calm     90% 0 in 0 W/m2
03:31 46.8 °F 44.1 °F 29.7 in Calm     90% 0 in 0 W/m2
03:36 46.8 °F 44.1 °F 29.7 in Calm     90% 0 in 0 W/m2
03:41 46.8 °F 44.2 °F 29.7 in Calm   1 mph 91% 0 in 0 W/m2
03:46 46.8 °F 44.2 °F 29.7 in Calm     91% 0 in 0 W/m2
03:51 46.6 °F 44.1 °F 29.7 in Calm     91% 0 in 0 W/m2
03:56 46.6 °F 44.1 °F 29.7 in Calm     91% 0 in 0 W/m2
04:01 46.6 °F 44.1 °F 29.7 in Calm     91% 0 in 0 W/m2
04:06 46.6 °F 44.1 °F 29.7 in Calm     91% 0 in 0 W/m2
04:11 46.6 °F 44.1 °F 29.7 in Calm     91% 0 in 0 W/m2
04:16 46.4 °F 43.9 °F 29.7 in Calm     91% 0 in 0 W/m2
04:21 46.4 °F 43.9 °F 29.7 in Calm     91% 0 in 0 W/m2
04:26 46.4 °F 43.9 °F 29.7 in Calm     91% 0 in 0 W/m2
04:31 46.2 °F 44.1 °F 29.7 in Calm     92% 0 in 0 W/m2
04:36 46.2 °F 44.1 °F 29.7 in Calm     92% 0 in 0 W/m2
04:41 46 °F 43.9 °F 29.7 in Calm     92% 0 in 0 W/m2
04:46 46 °F 43.5 °F 29.7 in Calm     91% 0 in 0 W/m2
04:51 45.9 °F 43.7 °F 29.7 in Calm     92% 0 in 0 W/m2
04:56 45.7 °F 43.5 °F 29.7 in Calm     92% 0 in 0 W/m2
05:01 45.5 °F 43.3 °F 29.7 in Calm     92% 0 in 0 W/m2
05:06 45.3 °F 42.8 °F 29.7 in Calm     91% 0 in 0 W/m2
05:11 45 °F 42.8 °F 29.7 in Calm     92% 0 in 0 W/m2
05:16 44.8 °F 42.6 °F 29.7 in Calm     92% 0 in 0 W/m2
05:21 44.6 °F 42.4 °F 29.7 in Calm     92% 0 in 0 W/m2
05:26 44.4 °F 42.3 °F 29.7 in Calm     92% 0 in 0 W/m2
05:31 44.2 °F 42.1 °F 29.7 in Calm     92% 0 in 0 W/m2
05:36 44.2 °F 42.3 °F 29.7 in Calm     93% 0 in 0 W/m2
05:41 44.2 °F 42.3 °F 29.7 in Calm     93% 0 in 0 W/m2
05:46 44.2 °F 42.3 °F 29.7 in Calm     93% 0 in 0 W/m2
05:51 44.2 °F 42.3 °F 29.7 in Calm     93% 0 in 0 W/m2
05:56 44.2 °F 42.3 °F 29.7 in Calm     93% 0 in 0 W/m2
06:01 44.2 °F 42.3 °F 29.7 in Calm     93% 0 in 5 W/m2
06:06 44.1 °F 42.1 °F 29.7 in Calm     93% 0 in 5 W/m2
Juneau County Weather
Compliments of Weather Underground - 4 mb